地図

経路データ

SID SEASON NUMBER BASIN SUBBASIN NAME ISO_TIME NATURE LAT LON WMO_WIND WMO_PRES WMO_AGENCY TRACK_TYPE DIST2LAND LANDFALL IFLAG USA_AGENCY USA_ATCF_ID USA_LAT USA_LON USA_RECORD USA_STATUS USA_WIND USA_PRES USA_SSHS USA_R34_NE USA_R34_SE USA_R34_SW USA_R34_NW USA_R50_NE USA_R50_SE USA_R50_SW USA_R50_NW USA_R64_NE USA_R64_SE USA_R64_SW USA_R64_NW USA_POCI USA_ROCI USA_RMW USA_EYE TOKYO_LAT TOKYO_LON TOKYO_GRADE TOKYO_WIND TOKYO_PRES TOKYO_R50_DIR TOKYO_R50_LONG TOKYO_R50_SHORT TOKYO_R30_DIR TOKYO_R30_LONG TOKYO_R30_SHORT TOKYO_LAND CMA_LAT CMA_LON CMA_CAT CMA_WIND CMA_PRES HKO_LAT HKO_LON HKO_CAT HKO_WIND HKO_PRES NEWDELHI_LAT NEWDELHI_LON NEWDELHI_GRADE NEWDELHI_WIND NEWDELHI_PRES NEWDELHI_CI NEWDELHI_DP NEWDELHI_POCI REUNION_LAT REUNION_LON REUNION_TYPE REUNION_WIND REUNION_PRES REUNION_TNUM REUNION_CI REUNION_RMW REUNION_R34_NE REUNION_R34_SE REUNION_R34_SW REUNION_R34_NW REUNION_R50_NE REUNION_R50_SE REUNION_R50_SW REUNION_R50_NW REUNION_R64_NE REUNION_R64_SE REUNION_R64_SW REUNION_R64_NW BOM_LAT BOM_LON BOM_TYPE BOM_WIND BOM_PRES BOM_TNUM BOM_CI BOM_RMW BOM_R34_NE BOM_R34_SE BOM_R34_SW BOM_R34_NW BOM_R50_NE BOM_R50_SE BOM_R50_SW BOM_R50_NW BOM_R64_NE BOM_R64_SE BOM_R64_SW BOM_R64_NW BOM_ROCI BOM_POCI BOM_EYE BOM_POS_METHOD BOM_PRES_METHOD NADI_LAT NADI_LON NADI_CAT NADI_WIND NADI_PRES WELLINGTON_LAT WELLINGTON_LON WELLINGTON_WIND WELLINGTON_PRES DS824_LAT DS824_LON DS824_STAGE DS824_WIND DS824_PRES TD9636_LAT TD9636_LON TD9636_STAGE TD9636_WIND TD9636_PRES TD9635_LAT TD9635_LON TD9635_WIND TD9635_PRES TD9635_ROCI NEUMANN_LAT NEUMANN_LON NEUMANN_CLASS NEUMANN_WIND NEUMANN_PRES MLC_LAT MLC_LON MLC_CLASS MLC_WIND MLC_PRES USA_GUST BOM_GUST BOM_GUST_PER REUNION_GUST REUNION_GUST_PER USA_SEAHGT USA_SEARAD_NE USA_SEARAD_SE USA_SEARAD_SW USA_SEARAD_NW STORM_SPEED STORM_DIR
1999043S18038 1999 14 SI MM NOT_NAMED 1999-02-11 12:00:00 TS -18.4000 38.4000 main 127 127 ____________O_ -1 -18.4000 38.4000 TC 20 11 97
1999043S18038 1999 14 SI MM NOT_NAMED 1999-02-11 15:00:00 TS -18.4656 38.9923 main 159 159 ____________P_ -1 -18.4656 38.9923 TC 22 10 96
1999043S18038 1999 14 SI MM NOT_NAMED 1999-02-11 18:00:00 TS -18.5000 39.4000 23 1002 reunion main 170 170 _____O______O_ -1 -18.5000 39.4000 2 23 1002 1.50000 2.00000 -18.5000 39.4000 TC 25 1002 5 93
1999043S18038 1999 14 SI MM NOT_NAMED 1999-02-11 21:00:00 TS -18.4923 39.4834 main 173 173 _____P______P_ -1 -18.4925 39.4300 2 21 1003 -18.4923 39.5101 TC 22 1003 1 90
1999043S18038 1999 14 SI MM NOT_NAMED 1999-02-12 00:00:00 TS -18.5000 39.5000 20 1004 reunion main 173 173 _____O______O_ -1 -18.5000 39.5000 2 20 1004 1.50000 1.50000 -18.5000 39.5000 TC 20 1004 1 113
1999043S18038 1999 14 SI MM NOT_NAMED 1999-02-12 03:00:00 TS -18.5475 39.6224 main 175 175 _____P______P_ -1 -18.5475 39.6224 2 20 1004 -18.5475 39.6224 TC 20 1004 3 136
1999043S18038 1999 14 SI MM NOT_NAMED 1999-02-12 06:00:00 TS -18.7000 39.7000 20 1005 reunion main 200 200 _____O______O_ -1 -18.7000 39.7000 2 20 1005 1.50000 1.50000 -18.7000 39.7000 TC 20 1005 5 176
1999043S18038 1999 14 SI MM NOT_NAMED 1999-02-12 09:00:00 TS -18.9974 39.6673 main 232 229 _____P______P_ -1 -18.9974 39.6673 2 20 1004 -18.9974 39.6673 TC 22 1004 8 209
1999043S18038 1999 14 SI MM NOT_NAMED 1999-02-12 12:00:00 TS -19.4000 39.2889 20 1003 reunion main 265 262 O____O______O_ jtwc_sh SH211999 -19.4000 37.6000 20 -1 -19.4000 39.5000 2 20 1003 1.50000 1.50000 -19.4000 39.5000 TC 25 1003 11 223
1999043S18038 1999 14 SI MM NOT_NAMED 1999-02-12 15:00:00 TS -19.7876 38.8969 main 275 275 P____P______P_ SH211999 -19.5375 37.7928 22 -1 -19.8502 39.1729 2 22 1001 -19.8502 39.1729 TC 27 1001 10 221
1999043S18038 1999 14 SI MM NOT_NAMED 1999-02-12 18:00:00 TS -20.1636 38.5818 25 1000 reunion main 281 272 O____O______O_ jtwc_sh SH211999 -19.8000 38.0000 25 -1 -20.3000 38.8000 2 25 1000 2.00000 2.00000 -20.3000 38.8000 TC 30 1000 9 211
1999043S18038 1999 14 SI MM NOT_NAMED 1999-02-12 21:00:00 TS -20.5358 38.4164 main 283 283 P____P______P_ SH211999 -20.2625 38.2095 27 -1 -20.6724 38.5198 2 25 1000 -20.6724 38.5198 TC 30 1000 8 199
1999043S18038 1999 14 SI MM NOT_NAMED 1999-02-13 00:00:00 TS -20.9333 38.3000 25 1000 reunion main 306 286 O____O______O_ jtwc_sh SH211999 -20.8000 38.3000 30 -1 -21.0000 38.3000 2 25 1000 2.00000 2.00000 -21.0000 38.3000 TC 30 1000 8 199
1999043S18038 1999 14 SI MM NOT_NAMED 1999-02-13 03:00:00 TS -21.3033 38.1260 main 286 266 P____P______P_ SH211999 -21.2801 38.1381 30 -1 -21.3150 38.1199 2 26 999 -21.3150 38.1199 TC 32 999 8 204
1999043S18038 1999 14 SI MM NOT_NAMED 1999-02-13 06:00:00 TS -21.6333 37.9667 28 998 reunion main 266 249 O____O______O_ jtwc_sh SH211999 -21.7000 37.9000 30 -1 -21.6000 38.0000 2 28 998 2.50000 2.50000 -21.6000 38.0000 TC 35 998 7 202
1999043S18038 1999 14 SI MM NOT_NAMED 1999-02-13 09:00:00 TS -21.9100 37.8625 main 249 236 P____P______P_ SH211999 -22.0000 37.7624 32 -1 -21.8650 37.9125 2 29 997 -21.8650 37.9125 TC 35 997 6 193
1999043S18038 1999 14 SI MM NOT_NAMED 1999-02-13 12:00:00 TS -22.1667 37.8333 30 996 reunion main 236 232 O____O______O_ jtwc_sh SH211999 -22.3000 37.7000 35 0 -22.1000 37.9000 2 30 996 2.50000 2.50000 -22.1000 37.9000 TC 35 996 6 181
1999043S18038 1999 14 SI MM NOT_NAMED 1999-02-13 15:00:00 TS -22.4749 37.8616 main 240 236 P____P______P_ SH211999 -22.7799 37.6899 37 0 -22.3224 37.9475 2 31 995 -22.3224 37.9475 TC 37 995 6 165
1999043S18038 1999 14 SI MM NOT_NAMED 1999-02-13 18:00:00 TS -22.7333 38.0000 32 995 reunion main 246 246 O____O______O_ jtwc_sh SH211999 -23.2000 37.8000 40 0 -22.5000 38.1000 2 32 995 2.50000 2.50000 -22.5000 38.1000 TC 40 995 6 137
1999043S18038 1999 14 SI MM NOT_NAMED 1999-02-13 21:00:00 TS -22.8784 38.2699 main 276 276 P____P______P_ SH211999 -23.3900 38.0548 40 0 -22.6226 38.3775 2 32 994 -22.6226 38.3775 TC 40 994 6 110
1999043S18038 1999 14 SI MM NOT_NAMED 1999-02-14 00:00:00 TS -22.9333 38.6000 33 994 reunion main 307 307 O____O______O_ jtwc_sh SH211999 -23.4000 38.4000 40 0 -22.7000 38.7000 2 33 994 2.50000 2.50000 -22.7000 38.7000 TC 40 994 6 97
1999043S18038 1999 14 SI MM NOT_NAMED 1999-02-14 03:00:00 TS -22.9490 38.8709 main 337 337 P____P______P_ SH211999 -23.2876 38.7578 42 0 -22.7797 38.9274 2 33 994 -22.7797 38.9274 TC 40 994 5 86
1999043S18038 1999 14 SI MM NOT_NAMED 1999-02-14 06:00:00 TS -22.9000 39.1667 33 994 reunion main 368 368 O____O______O_ jtwc_sh SH211999 -23.1000 39.1000 45 0 -22.8000 39.2000 2 33 994 2.50000 2.50000 -22.8000 39.2000 TC 40 994 6 80
1999043S18038 1999 14 SI MM NOT_NAMED 1999-02-14 09:00:00 TS -22.8409 39.5423 main 383 341 P____P______P_ SH211999 -22.9873 39.3571 42 0 -22.7677 39.6348 2 33 994 -22.7677 39.6348 TC 40 994 7 72
1999043S18038 1999 14 SI MM NOT_NAMED 1999-02-14 12:00:00 TS -22.6667 39.9333 33 994 reunion main 341 298 O____O______O_ jtwc_sh SH211999 -22.8000 39.6000 40 0 -22.6000 40.1000 2 33 994 2.50000 2.50000 -22.6000 40.1000 TC 40 994 9 55
1999043S18038 1999 14 SI MM NOT_NAMED 1999-02-14 15:00:00 TS -22.3442 40.3069 main 298 268 P____P______P_ SH211999 -22.4676 39.9152 37 0 -22.2825 40.5028 2 32 994 -22.2825 40.5028 TC 40 994 10 38
1999043S18038 1999 14 SI MM NOT_NAMED 1999-02-14 18:00:00 TS -21.8667 40.6000 32 995 reunion main 269 263 O____O______O_ jtwc_sh SH211999 -22.0000 40.2000 35 0 -21.8000 40.8000 2 32 995 2.50000 2.50000 -21.8000 40.8000 TC 40 995 12 21
1999043S18038 1999 14 SI MM NOT_NAMED 1999-02-14 21:00:00 TS -21.2332 40.7766 main 271 271 P____P______P_ SH211999 -21.4149 40.3799 35 0 -21.1424 40.9750 2 31 995 -21.1424 40.9750 TC 37 995 13 10
1999043S18038 1999 14 SI MM NOT_NAMED 1999-02-15 00:00:00 TS -20.6000 40.8333 30 996 reunion main 294 294 O____O______O_ jtwc_sh SH211999 -20.8000 40.5000 35 0 -20.5000 41.0000 2 30 996 2.00000 2.50000 -20.5000 41.0000 TC 35 996 11 2
1999043S18038 1999 14 SI MM NOT_NAMED 1999-02-15 03:00:00 TS -20.1425 40.8116 main 316 316 P____P______P_ SH211999 -20.2475 40.6451 32 -1 -20.0900 40.8948 2 29 997 -20.0900 40.8948 TC 35 997 8 351
1999043S18038 1999 14 SI MM NOT_NAMED 1999-02-15 06:00:00 TS -19.8000 40.7000 28 998 reunion main 341 316 O____O______O_ jtwc_sh SH211999 -19.8000 40.7000 30 -1 -19.8000 40.7000 2 28 998 2.00000 2.50000 -19.8000 40.7000 TC 35 998 7 336
1999043S18038 1999 14 SI MM NOT_NAMED 1999-02-15 09:00:00 TS -19.5350 40.5292 main 316 286 P____P______P_ SH211999 -19.5200 40.6024 30 -1 -19.5425 40.4925 2 26 999 -19.5425 40.4925 TC 32 999 6 325
1999043S18038 1999 14 SI MM NOT_NAMED 1999-02-15 12:00:00 TS -19.3000 40.3333 25 1000 reunion main 286 252 O____O______O_ jtwc_sh SH211999 -19.3000 40.4000 30 -1 -19.3000 40.3000 2 25 1000 1.50000 2.00000 -19.3000 40.3000 TC 30 1000 6 330
1999043S18038 1999 14 SI MM NOT_NAMED 1999-02-15 15:00:00 TS -18.9899 40.1984 main 252 212 P____P______P_ SH211999 -18.9701 40.1498 30 -1 -18.9998 40.2228 2 25 1000 -18.9998 40.2228 TC 30 1000 7 335
1999043S18038 1999 14 SI MM NOT_NAMED 1999-02-15 18:00:00 TS -18.7000 40.0333 25 1000 reunion main 212 183 O____O______O_ jtwc_sh SH211999 -18.7000 39.9000 30 -1 -18.7000 40.1000 2 25 1000 1.50000 2.00000 -18.7000 40.1000 TC 30 1000 7 321
1999043S18038 1999 14 SI MM NOT_NAMED 1999-02-15 21:00:00 TS -18.4693 39.7523 main 183 151 P____P______P_ SH211999 -18.6124 39.7427 30 -1 -18.3977 39.7572 2 22 1001 -18.3977 39.7572 TC 27 1001 7 304
1999043S18038 1999 14 SI MM NOT_NAMED 1999-02-16 00:00:00 TS -18.3333 39.4667 20 1002 reunion main 151 147 O____O______O_ jtwc_sh SH211999 -18.6000 39.6000 30 -1 -18.2000 39.4000 2 20 1002 1.50000 1.50000 -18.2000 39.4000 TC 25 1002 5 290
1999043S18038 1999 14 SI MM NOT_NAMED 1999-02-16 03:00:00 TS -18.3074 39.2901 main 147 144 P____P______P_ SH211999 -18.5425 39.4000 27 -1 -18.1898 39.2351 2 20 1003 -18.1898 39.2351 TC 22 1003 3 264
1999043S18038 1999 14 SI MM NOT_NAMED 1999-02-16 06:00:00 TS -18.3667 39.1333 20 1004 reunion main 151 146 O____O______O_ jtwc_sh SH211999 -18.5000 39.2000 25 -1 -18.3000 39.1000 2 20 1004 1.50000 1.50000 -18.3000 39.1000 TC 20 1004 4 247
1999043S18038 1999 14 SI MM NOT_NAMED 1999-02-16 09:00:00 TS -18.4541 38.9317 main 158 148 P____P______P_ SH211999 -18.4924 39.0500 25 -1 -18.4350 38.8725 2 20 1004 -18.4350 38.8725 TC 20 1004 5 244
1999043S18038 1999 14 SI MM NOT_NAMED 1999-02-16 12:00:00 TS -18.5727 38.6818 20 1005 reunion main 158 151 O____O______O_ jtwc_sh SH211999 -18.5000 38.9000 25 -1 -18.6000 38.6000 2 20 1005 1.50000 1.50000 -18.6000 38.6000 TC 20 1005 6 245
1999043S18038 1999 14 SI MM NOT_NAMED 1999-02-16 15:00:00 TS -18.7005 38.3825 main 158 139 P____P______P_ SH211999 -18.5026 38.7125 25 -1 -18.7500 38.3000 2 20 1005 -18.7500 38.3000 TC 20 1005 6 245
1999043S18038 1999 14 SI MM NOT_NAMED 1999-02-16 18:00:00 TS -18.8429 38.0714 20 1005 reunion main 139 130 O____O______O_ jtwc_sh SH211999 -18.5000 38.5000 25 -1 -18.9000 38.0000 2 20 1005 1.50000 1.50000 -18.9000 38.0000 TC 20 1005 7 240
1999043S18038 1999 14 SI MM NOT_NAMED 1999-02-16 21:00:00 TS -19.0500 37.7376 main 131 124 _____P______P_ SH211999 -1 -19.0500 37.7376 2 17 1005 -19.0500 37.7376 TC 17 1005 6 236
1999043S18038 1999 14 SI MM NOT_NAMED 1999-02-17 00:00:00 TS -19.2000 37.5000 15 1006 reunion main 124 _____O______O_ -1 -19.2000 37.5000 6 15 1006 9.90000 -19.2000 37.5000 TC 15 1006 5 236

IBTrACS Databaseについて

本データベースは、米国NOAAが公開する1842年以降の世界の熱帯低気圧のベストトラックデータアーカイブInternational Best Track Archive for Climate Stewardship (IBTrACS)を、ウェブで閲覧しやすい形式に変換したものです。

最終更新日:2021-10-19